createdAt,value
2023-04-10T00:00:57.614Z,88.40
2023-04-10T00:03:26.520Z,88.01
2023-04-10T00:05:55.248Z,87.89
2023-04-10T00:08:25.587Z,87.97
2023-04-10T00:10:54.857Z,87.73
2023-04-10T00:13:23.447Z,87.82
2023-04-10T00:15:51.844Z,88.18
2023-04-10T00:18:20.623Z,88.41
2023-04-10T00:20:48.882Z,88.28
2023-04-10T00:23:17.357Z,88.53
2023-04-10T00:25:48.006Z,88.55
2023-04-10T00:28:17.637Z,88.38
2023-04-10T00:30:45.972Z,88.55
2023-04-10T00:33:14.502Z,88.44
2023-04-10T00:35:43.151Z,88.68
2023-04-10T00:38:12.776Z,88.55
2023-04-10T00:40:41.764Z,88.67
2023-04-10T00:43:10.227Z,88.63
2023-04-10T00:45:39.633Z,88.77
2023-04-10T00:48:08.419Z,88.83
2023-04-10T00:50:36.697Z,88.82
2023-04-10T00:53:05.385Z,88.97
2023-04-10T00:55:33.967Z,88.96
2023-04-10T00:58:02.757Z,88.89
2023-04-10T01:00:31.388Z,88.82
2023-04-10T01:03:01.813Z,88.88
2023-04-10T01:05:35.981Z,88.92
2023-04-10T01:08:23.102Z,89.08
2023-04-10T01:11:24.638Z,88.97
2023-04-10T01:14:07.576Z,89.07
2023-04-10T01:20:19.513Z,89.19
2023-04-10T01:23:03.018Z,89.45
2023-04-10T01:25:42.223Z,89.50
2023-04-10T01:28:20.518Z,89.57
2023-04-10T01:30:54.298Z,89.51
2023-04-10T01:33:30.136Z,89.57
2023-04-10T01:36:03.370Z,89.54
2023-04-10T01:38:33.289Z,89.38
2023-04-10T01:41:02.719Z,88.98
2023-04-10T01:43:34.189Z,88.98
2023-04-10T01:46:05.161Z,88.78
2023-04-10T01:48:34.115Z,89.14
2023-04-10T01:51:07.186Z,89.23
2023-04-10T01:53:37.016Z,89.26
2023-04-10T01:56:08.644Z,89.38
2023-04-10T01:58:44.171Z,89.47
2023-04-10T02:01:28.472Z,89.24
2023-04-10T02:03:59.950Z,89.22
2023-04-10T02:06:55.642Z,89.28
2023-04-10T02:09:36.418Z,89.19
2023-04-10T02:12:09.716Z,89.45
2023-04-10T02:14:45.270Z,89.42
2023-04-10T02:17:22.357Z,89.26
2023-04-10T02:19:54.913Z,89.55
2023-04-10T02:22:25.908Z,89.49
2023-04-10T02:24:54.945Z,89.74
2023-04-10T02:27:36.088Z,89.64
2023-04-10T02:30:05.635Z,89.72
2023-04-10T02:32:35.656Z,89.68
2023-04-10T02:35:04.496Z,89.67
2023-04-10T02:37:33.436Z,89.69
2023-04-10T02:40:02.629Z,89.63
2023-04-10T02:42:37.931Z,89.62
2023-04-10T02:45:07.580Z,89.72
2023-04-10T02:47:39.766Z,89.61
2023-04-10T02:50:09.454Z,89.66
2023-04-10T02:52:39.572Z,89.56
2023-04-10T02:55:08.631Z,89.61
2023-04-10T02:57:38.588Z,89.60
2023-04-10T03:00:07.992Z,89.73
2023-04-10T03:02:56.332Z,89.79
2023-04-10T03:05:25.265Z,89.82
2023-04-10T03:07:54.638Z,89.77
2023-04-10T03:10:23.520Z,89.93
2023-04-10T03:12:51.989Z,90.02
2023-04-10T03:15:20.897Z,89.77
2023-04-10T03:17:49.574Z,89.66
2023-04-10T03:20:18.366Z,89.70
2023-04-10T03:22:47.052Z,89.82
2023-04-10T03:25:16.751Z,90.01
2023-04-10T03:27:45.242Z,90.06
2023-04-10T03:30:14.342Z,89.78
2023-04-10T03:32:45.073Z,89.72
2023-04-10T03:35:13.565Z,89.34
2023-04-10T03:37:42.747Z,89.34
2023-04-10T03:40:12.367Z,89.32
2023-04-10T03:42:41.551Z,89.69
2023-04-10T03:45:11.389Z,89.61
2023-04-10T03:47:39.932Z,89.59
2023-04-10T03:50:10.794Z,89.73
2023-04-10T03:52:46.543Z,89.78
2023-04-10T03:55:19.260Z,89.87
2023-04-10T03:57:49.056Z,89.74
2023-04-10T04:00:18.728Z,89.91
2023-04-10T04:02:52.975Z,89.74
2023-04-10T04:05:47.336Z,89.82
2023-04-10T04:08:45.105Z,89.73
2023-04-10T04:11:25.671Z,89.77
2023-04-10T04:14:01.320Z,90.00
2023-04-10T04:16:56.424Z,90.10
2023-04-10T04:19:57.068Z,90.13
2023-04-10T04:22:39.894Z,90.17
2023-04-10T04:25:30.782Z,90.00
2023-04-10T04:28:02.444Z,90.17
2023-04-10T04:30:36.992Z,90.27
2023-04-10T04:33:25.978Z,90.25
2023-04-10T04:36:07.045Z,90.39
2023-04-10T04:39:05.689Z,90.32
2023-04-10T04:42:02.025Z,90.41
2023-04-10T04:44:56.620Z,90.56
2023-04-10T04:47:59.007Z,90.47
2023-04-10T04:50:51.645Z,90.45
2023-04-10T04:53:40.406Z,90.35
2023-04-10T04:56:28.960Z,90.36
2023-04-10T04:59:19.547Z,90.30
2023-04-10T05:02:20.361Z,90.39
2023-04-10T05:05:20.132Z,90.44
2023-04-10T05:08:00.735Z,90.22
2023-04-10T05:10:42.758Z,90.20
2023-04-10T05:13:23.653Z,90.29
2023-04-10T05:16:10.741Z,90.12
2023-04-10T05:18:57.999Z,90.28
2023-04-10T05:21:45.589Z,90.31
2023-04-10T05:24:34.754Z,90.29
2023-04-10T05:27:22.401Z,90.38
2023-04-10T05:30:09.518Z,90.44
2023-04-10T05:32:48.769Z,90.43
2023-04-10T05:35:40.718Z,90.51
2023-04-10T05:38:27.597Z,90.43
2023-04-10T05:41:14.082Z,89.88
2023-04-10T05:44:01.617Z,90.20
2023-04-10T05:46:47.999Z,90.09
2023-04-10T05:49:36.471Z,90.14
2023-04-10T05:52:25.671Z,90.26
2023-04-10T05:55:12.541Z,90.30
2023-04-10T05:57:44.136Z,90.11
2023-04-10T06:00:48.240Z,89.61
2023-04-10T06:03:43.724Z,88.87
2023-04-10T06:06:12.827Z,88.65
2023-04-10T06:08:42.022Z,88.09
2023-04-10T06:11:10.910Z,88.96
2023-04-10T06:13:41.643Z,89.22
2023-04-10T06:16:10.930Z,89.17
2023-04-10T06:18:39.741Z,88.53
2023-04-10T06:21:08.755Z,88.39
2023-04-10T06:23:37.617Z,88.52
2023-04-10T06:26:06.997Z,88.78
2023-04-10T06:28:35.801Z,89.15
2023-04-10T06:31:07.823Z,89.16
2023-04-10T06:33:38.002Z,89.26
2023-04-10T06:36:10.832Z,89.62
2023-04-10T06:38:44.797Z,89.53
2023-04-10T06:41:13.685Z,88.35
2023-04-10T06:43:42.163Z,88.72
2023-04-10T06:46:10.849Z,89.01
2023-04-10T06:48:39.325Z,86.83
2023-04-10T06:51:08.217Z,86.95
2023-04-10T06:53:37.080Z,87.37
2023-04-10T06:56:07.317Z,87.99
2023-04-10T06:58:36.129Z,88.65
2023-04-10T07:01:05.148Z,88.54
2023-04-10T07:03:34.183Z,88.58
2023-04-10T07:06:03.599Z,88.57
2023-04-10T07:08:32.294Z,87.45
2023-04-10T07:11:01.257Z,88.28
2023-04-10T07:13:30.269Z,88.87
2023-04-10T07:15:59.090Z,86.72
2023-04-10T07:18:27.763Z,86.44
2023-04-10T07:20:56.645Z,85.29
2023-04-10T07:23:25.167Z,85.75
2023-04-10T07:25:53.922Z,85.20
2023-04-10T07:28:22.804Z,86.38
2023-04-10T07:30:52.102Z,86.69
2023-04-10T07:33:22.772Z,84.88
2023-04-10T07:35:52.163Z,84.04
2023-04-10T07:38:21.434Z,84.12
2023-04-10T07:40:52.985Z,83.98
2023-04-10T07:43:21.594Z,81.90
2023-04-10T07:49:32.058Z,83.85
2023-04-10T07:52:01.082Z,85.59
2023-04-10T07:54:34.230Z,86.90
2023-04-10T07:57:02.936Z,85.52
2023-04-10T07:59:32.141Z,85.77
2023-04-10T08:02:00.929Z,85.35
2023-04-10T08:04:30.032Z,85.65
2023-04-10T08:06:58.925Z,86.81
2023-04-10T08:09:47.750Z,86.25
2023-04-10T08:12:17.482Z,85.33
2023-04-10T08:14:46.896Z,86.97
2023-04-10T08:17:15.655Z,85.42
2023-04-10T08:19:44.161Z,87.87
2023-04-10T08:22:12.817Z,88.64
2023-04-10T08:24:41.304Z,89.06
2023-04-10T08:27:11.313Z,89.29
2023-04-10T08:29:40.465Z,89.51
2023-04-10T08:32:09.514Z,89.48
2023-04-10T08:34:37.985Z,89.30
2023-04-10T08:37:09.723Z,89.65
2023-04-10T08:39:39.670Z,89.45
2023-04-10T08:42:08.491Z,86.67
2023-04-10T08:44:38.262Z,88.94
2023-04-10T08:47:08.798Z,88.13
2023-04-10T08:49:39.644Z,88.69
2023-04-10T08:52:10.065Z,88.62
2023-04-10T08:54:39.673Z,88.56
2023-04-10T08:57:10.692Z,88.35
2023-04-10T08:59:40.206Z,86.56
2023-04-10T09:02:08.766Z,85.84
2023-04-10T09:04:37.787Z,87.26
2023-04-10T09:07:07.710Z,85.09
2023-04-10T09:09:36.603Z,85.38
2023-04-10T09:12:07.098Z,83.53
2023-04-10T09:14:37.465Z,78.54
2023-04-10T09:17:24.608Z,81.86
2023-04-10T09:19:55.835Z,80.16
2023-04-10T09:22:35.042Z,80.03
2023-04-10T09:25:05.082Z,80.47
2023-04-10T09:27:35.756Z,81.29
2023-04-10T09:30:05.813Z,80.18
2023-04-10T09:32:42.982Z,80.96
2023-04-10T09:35:14.813Z,75.53
2023-04-10T09:37:47.063Z,75.40
2023-04-10T09:40:23.193Z,75.59
2023-04-10T09:42:52.887Z,77.88
2023-04-10T09:45:22.874Z,82.34
2023-04-10T09:48:07.875Z,78.73
2023-04-10T09:50:40.468Z,76.47
2023-04-10T09:53:12.621Z,71.03
2023-04-10T09:55:43.042Z,77.08
2023-04-10T09:58:12.546Z,78.56
2023-04-10T10:00:49.921Z,81.13
2023-04-10T10:03:21.580Z,79.70
2023-04-10T10:05:51.815Z,83.55
2023-04-10T10:08:21.748Z,83.27
2023-04-10T10:10:53.789Z,81.70
2023-04-10T10:13:33.127Z,79.68
2023-04-10T10:16:13.400Z,78.22
2023-04-10T10:18:58.068Z,83.28
2023-04-10T10:21:28.282Z,82.41
2023-04-10T10:23:59.857Z,85.18
2023-04-10T10:26:30.861Z,85.29
2023-04-10T10:29:03.491Z,80.55
2023-04-10T10:31:34.402Z,80.50
2023-04-10T10:34:08.638Z,79.43
2023-04-10T10:36:38.394Z,80.44
2023-04-10T10:39:37.825Z,74.66
2023-04-10T10:42:14.905Z,78.50
2023-04-10T10:44:47.478Z,79.17
2023-04-10T10:47:24.601Z,78.16
2023-04-10T10:49:55.193Z,78.77
2023-04-10T10:52:53.528Z,77.95
2023-04-10T10:55:24.414Z,79.16
2023-04-10T10:57:53.482Z,80.90
2023-04-10T11:00:26.904Z,77.30
2023-04-10T11:03:08.061Z,80.41
2023-04-10T11:05:59.908Z,81.83
2023-04-10T11:08:35.857Z,76.07
2023-04-10T11:11:09.666Z,75.28
2023-04-10T11:13:40.639Z,72.64
2023-04-10T11:16:11.443Z,76.35
2023-04-10T11:19:02.751Z,75.58
2023-04-10T11:22:15.992Z,74.87
2023-04-10T11:24:58.989Z,82.11
2023-04-10T11:27:42.151Z,80.30
2023-04-10T11:30:28.301Z,79.51
2023-04-10T11:32:57.504Z,83.33
2023-04-10T11:35:27.696Z,84.37
2023-04-10T11:38:10.161Z,81.38
2023-04-10T11:40:54.768Z,81.36
2023-04-10T11:43:23.211Z,76.80
2023-04-10T11:46:00.238Z,79.19
2023-04-10T11:48:29.878Z,80.85
2023-04-10T11:51:00.302Z,79.58
2023-04-10T11:53:30.380Z,82.04
2023-04-10T11:55:59.025Z,84.14
2023-04-10T11:58:30.713Z,83.88
2023-04-10T12:01:00.006Z,79.13
2023-04-10T12:03:42.822Z,75.61
2023-04-10T12:06:13.602Z,69.40
2023-04-10T12:08:46.209Z,67.06
2023-04-10T12:11:16.413Z,69.98
2023-04-10T12:13:46.777Z,75.25
2023-04-10T12:16:15.750Z,77.93
2023-04-10T12:18:48.015Z,80.59
2023-04-10T12:21:18.126Z,82.46
2023-04-10T12:23:46.704Z,79.45
2023-04-10T12:26:17.630Z,74.64
2023-04-10T12:28:55.518Z,64.52
2023-04-10T12:31:37.234Z,65.91
2023-04-10T12:34:08.547Z,60.76
2023-04-10T12:36:38.911Z,70.45
2023-04-10T12:39:22.951Z,68.23
2023-04-10T12:41:52.371Z,63.06
2023-04-10T12:44:23.505Z,65.80
2023-04-10T12:47:02.001Z,69.37
2023-04-10T12:49:30.484Z,66.42
2023-04-10T12:51:59.092Z,70.10
2023-04-10T12:54:28.513Z,65.10
2023-04-10T12:56:59.240Z,62.82
2023-04-10T12:59:29.307Z,68.66
2023-04-10T13:01:57.899Z,66.83
2023-04-10T13:04:27.550Z,71.07
2023-04-10T13:06:56.741Z,71.55
2023-04-10T13:09:25.143Z,68.42
2023-04-10T13:11:53.762Z,66.63
2023-04-10T13:14:23.011Z,72.58
2023-04-10T13:16:51.384Z,69.32
2023-04-10T13:19:20.477Z,71.37
2023-04-10T13:21:50.945Z,73.70
2023-04-10T13:24:19.625Z,61.09
2023-04-10T13:26:48.584Z,66.99
2023-04-10T13:29:17.273Z,69.91
2023-04-10T13:35:04.252Z,77.40
2023-04-10T13:37:59.002Z,78.55
2023-04-10T13:40:28.157Z,74.74
2023-04-10T13:42:57.401Z,80.07
2023-04-10T13:45:26.181Z,76.34
2023-04-10T13:47:55.013Z,79.15
2023-04-10T13:50:25.900Z,79.38
2023-04-10T13:52:55.612Z,81.66
2023-04-10T13:55:24.361Z,76.60
2023-04-10T13:57:52.989Z,78.42
2023-04-10T14:00:22.505Z,68.66
2023-04-10T14:02:51.836Z,65.62
2023-04-10T14:05:20.885Z,64.57
2023-04-10T14:07:52.237Z,72.28
2023-04-10T14:10:21.214Z,75.22
2023-04-10T14:12:49.812Z,75.46
2023-04-10T14:15:18.814Z,72.96
2023-04-10T14:17:47.566Z,73.84
2023-04-10T14:20:16.074Z,74.33
2023-04-10T14:22:47.660Z,73.51
2023-04-10T14:25:16.446Z,76.50
2023-04-10T14:27:45.913Z,75.89
2023-04-10T14:30:14.976Z,73.27
2023-04-10T14:32:44.202Z,73.63
2023-04-10T14:35:13.617Z,70.08
2023-04-10T14:37:42.415Z,67.90
2023-04-10T14:40:11.636Z,72.17
2023-04-10T14:42:40.186Z,72.99
2023-04-10T14:45:09.788Z,71.03
2023-04-10T14:47:38.629Z,76.38
2023-04-10T14:50:08.122Z,73.55
2023-04-10T14:52:36.866Z,69.87
2023-04-10T14:55:06.179Z,61.40
2023-04-10T14:57:34.852Z,67.45
2023-04-10T15:00:04.718Z,63.14
2023-04-10T15:02:33.211Z,68.58
2023-04-10T15:05:01.832Z,67.86
2023-04-10T15:07:30.754Z,57.07
2023-04-10T15:09:59.918Z,56.81
2023-04-10T15:12:28.639Z,68.01
2023-04-10T15:14:57.438Z,63.44
2023-04-10T15:17:25.837Z,68.60
2023-04-10T15:19:54.454Z,65.85
2023-04-10T15:22:23.062Z,58.63
2023-04-10T15:24:51.618Z,61.31
2023-04-10T15:27:21.478Z,70.25
2023-04-10T15:29:50.123Z,63.82
2023-04-10T15:32:18.590Z,71.18
2023-04-10T15:34:47.292Z,70.66
2023-04-10T15:37:15.887Z,56.56
2023-04-10T15:39:44.352Z,64.20
2023-04-10T15:42:13.754Z,65.88
2023-04-10T15:44:42.228Z,69.14
2023-04-10T15:47:10.738Z,66.77
2023-04-10T15:49:39.143Z,69.12
2023-04-10T15:52:07.489Z,75.10
2023-04-10T15:54:36.151Z,76.47
2023-04-10T15:57:05.044Z,74.56
2023-04-10T15:59:34.274Z,66.85
2023-04-10T16:02:29.256Z,76.25
2023-04-10T16:04:58.301Z,77.12
2023-04-10T16:07:26.850Z,76.54
2023-04-10T16:09:56.975Z,73.12
2023-04-10T16:12:25.732Z,66.80
2023-04-10T16:14:54.120Z,64.81
2023-04-10T16:17:22.505Z,70.53
2023-04-10T16:19:51.212Z,74.33
2023-04-10T16:22:19.823Z,71.80
2023-04-10T16:24:48.573Z,64.68
2023-04-10T16:27:18.357Z,67.71
2023-04-10T16:29:46.837Z,67.43
2023-04-10T16:32:15.360Z,67.11
2023-04-10T16:34:43.809Z,70.55
2023-04-10T16:37:33.823Z,65.46
2023-04-10T16:40:02.576Z,65.34
2023-04-10T16:42:31.460Z,65.72
2023-04-10T16:45:03.238Z,60.72
2023-04-10T16:47:35.980Z,63.58
2023-04-10T16:50:09.071Z,64.60
2023-04-10T16:52:37.781Z,63.66
2023-04-10T16:55:07.493Z,68.26
2023-04-10T16:57:36.169Z,67.90
2023-04-10T17:00:05.444Z,70.26
2023-04-10T17:02:34.215Z,68.50
2023-04-10T17:05:02.862Z,71.16
2023-04-10T17:07:31.737Z,73.49
2023-04-10T17:10:00.485Z,72.33
2023-04-10T17:12:29.345Z,72.82
2023-04-10T17:14:58.020Z,70.62
2023-04-10T17:17:26.828Z,68.80
2023-04-10T17:19:55.996Z,66.68
2023-04-10T17:22:25.086Z,66.51
2023-04-10T17:24:53.874Z,64.42
2023-04-10T17:27:23.181Z,66.29
2023-04-10T17:29:52.057Z,69.31
2023-04-10T17:32:20.774Z,73.19
2023-04-10T17:34:49.439Z,72.70
2023-04-10T17:37:20.001Z,70.64
2023-04-10T17:39:52.023Z,71.24
2023-04-10T17:42:25.015Z,70.71
2023-04-10T17:44:53.610Z,70.46
2023-04-10T17:47:22.377Z,69.34
2023-04-10T17:49:51.242Z,65.62
2023-04-10T17:52:19.882Z,65.47
2023-04-10T17:54:48.237Z,65.65
2023-04-10T17:57:17.033Z,66.84
2023-04-10T17:59:46.038Z,65.05
2023-04-10T18:02:14.543Z,65.48
2023-04-10T18:04:43.385Z,73.58
2023-04-10T18:07:12.281Z,76.48
2023-04-10T18:09:41.172Z,76.95
2023-04-10T18:12:11.089Z,75.94
2023-04-10T18:14:40.013Z,76.02
2023-04-10T18:17:08.909Z,78.06
2023-04-10T18:19:37.554Z,79.51
2023-04-10T18:22:06.466Z,79.31
2023-04-10T18:24:35.344Z,80.18
2023-04-10T18:27:04.545Z,79.66
2023-04-10T18:29:33.545Z,80.35
2023-04-10T18:32:02.046Z,81.35
2023-04-10T18:34:33.254Z,80.96
2023-04-10T18:37:01.964Z,79.08
2023-04-10T18:39:30.926Z,78.54
2023-04-10T18:42:04.221Z,79.91
2023-04-10T18:44:35.795Z,81.02
2023-04-10T18:47:07.876Z,81.18
2023-04-10T18:49:36.849Z,81.77
2023-04-10T18:52:08.899Z,81.71
2023-04-10T18:54:38.617Z,82.03
2023-04-10T18:57:07.906Z,82.56
2023-04-10T18:59:37.741Z,79.39
2023-04-10T19:02:09.256Z,77.57
2023-04-10T19:04:38.165Z,77.81
2023-04-10T19:07:09.861Z,76.34
2023-04-10T19:09:48.040Z,76.10
2023-04-10T19:12:16.632Z,77.42
2023-04-10T19:14:45.203Z,79.45
2023-04-10T19:17:14.500Z,80.64
2023-04-10T19:19:43.725Z,82.20
2023-04-10T19:22:13.752Z,82.62
2023-04-10T19:24:42.393Z,78.09
2023-04-10T19:27:11.109Z,77.51
2023-04-10T19:29:39.984Z,79.01
2023-04-10T19:32:10.042Z,75.34
2023-04-10T19:34:42.532Z,79.29
2023-04-10T19:37:11.456Z,79.48
2023-04-10T19:39:40.347Z,79.74
2023-04-10T19:42:08.939Z,78.51
2023-04-10T19:44:37.419Z,78.93
2023-04-10T19:47:06.310Z,79.51
2023-04-10T19:49:37.660Z,79.46
2023-04-10T19:52:06.539Z,80.11
2023-04-10T19:54:35.129Z,80.53
2023-04-10T19:57:03.924Z,80.97
2023-04-10T19:59:32.589Z,82.46
2023-04-10T20:02:01.472Z,82.47
2023-04-10T20:04:30.216Z,83.82
2023-04-10T20:06:59.574Z,83.75
2023-04-10T20:09:28.271Z,82.05
2023-04-10T20:11:57.460Z,82.52
2023-04-10T20:14:27.263Z,82.44
2023-04-10T20:16:55.854Z,83.80
2023-04-10T20:19:24.683Z,83.61
2023-04-10T20:21:53.427Z,84.37
2023-04-10T20:24:22.215Z,84.73
2023-04-10T20:26:51.042Z,85.23
2023-04-10T20:29:19.491Z,84.16
2023-04-10T20:31:48.302Z,84.93
2023-04-10T20:34:16.966Z,85.58
2023-04-10T20:36:45.644Z,85.69
2023-04-10T20:39:14.222Z,86.04
2023-04-10T20:41:43.120Z,85.60
2023-04-10T20:44:12.020Z,84.97
2023-04-10T20:46:41.001Z,85.26
2023-04-10T20:49:12.794Z,85.81
2023-04-10T20:51:41.646Z,86.28
2023-04-10T20:54:10.430Z,86.03
2023-04-10T20:56:43.515Z,86.08
2023-04-10T20:59:12.433Z,85.68
2023-04-10T21:01:41.412Z,84.51
2023-04-10T21:04:10.009Z,84.36
2023-04-10T21:06:39.101Z,83.86
2023-04-10T21:09:07.597Z,83.55
2023-04-10T21:11:36.357Z,83.68
2023-04-10T21:14:05.255Z,82.63
2023-04-10T21:16:35.466Z,83.30
2023-04-10T21:19:04.269Z,83.66
2023-04-10T21:21:33.676Z,84.55
2023-04-10T21:24:02.471Z,85.44
2023-04-10T21:26:31.355Z,85.92
2023-04-10T21:29:00.409Z,86.23
2023-04-10T21:31:29.366Z,86.34
2023-04-10T21:34:13.423Z,86.53
2023-04-10T21:36:42.315Z,86.63
2023-04-10T21:39:11.277Z,86.59
2023-04-10T21:41:40.257Z,85.28
2023-04-10T21:44:09.061Z,86.00
2023-04-10T21:46:38.205Z,85.93
2023-04-10T21:49:07.422Z,86.01
2023-04-10T21:51:36.447Z,85.98
2023-04-10T21:54:04.926Z,86.05
2023-04-10T21:56:35.863Z,86.58
2023-04-10T21:59:04.843Z,86.63
2023-04-10T22:01:34.573Z,86.88
2023-04-10T22:04:03.815Z,86.99
2023-04-10T22:06:33.053Z,87.40
2023-04-10T22:09:01.525Z,87.13
2023-04-10T22:11:30.246Z,87.06
2023-04-10T22:17:35.735Z,86.26
2023-04-10T22:20:04.800Z,86.56
2023-04-10T22:22:33.185Z,86.51
2023-04-10T22:25:01.670Z,85.53
2023-04-10T22:27:30.270Z,85.43
2023-04-10T22:32:30.539Z,84.65
2023-04-10T22:35:00.323Z,85.27
2023-04-10T22:37:29.064Z,85.86
2023-04-10T22:39:57.649Z,85.96
2023-04-10T22:42:27.648Z,85.37
2023-04-10T22:44:57.118Z,85.60
2023-04-10T22:47:27.487Z,85.76
2023-04-10T22:49:56.070Z,86.05
2023-04-10T22:52:24.748Z,85.47
2023-04-10T22:54:53.535Z,86.03
2023-04-10T22:57:22.042Z,86.58
2023-04-10T22:59:50.721Z,86.87
2023-04-10T23:02:19.342Z,87.24
2023-04-10T23:04:50.057Z,87.17
2023-04-10T23:07:19.573Z,86.45
2023-04-10T23:09:48.265Z,86.52
2023-04-10T23:12:16.910Z,86.41
2023-04-10T23:14:45.481Z,86.29
2023-04-10T23:17:14.106Z,86.65
2023-04-10T23:19:42.763Z,86.88
2023-04-10T23:22:12.871Z,86.91
2023-04-10T23:24:41.377Z,86.91
2023-04-10T23:27:09.945Z,87.40
2023-04-10T23:29:38.531Z,87.38
2023-04-10T23:32:08.375Z,87.64
2023-04-10T23:34:37.236Z,87.55
2023-04-10T23:37:06.924Z,87.96
2023-04-10T23:39:35.747Z,88.12
2023-04-10T23:42:05.041Z,88.15
2023-04-10T23:44:33.832Z,88.05
2023-04-10T23:47:02.758Z,88.14
2023-04-10T23:49:31.874Z,87.95
2023-04-10T23:52:00.953Z,88.02
2023-04-10T23:54:30.341Z,88.33
2023-04-10T23:56:59.771Z,88.52
2023-04-10T23:59:28.489Z,88.29
